createdAt,value
2022-10-14T00:02:21.998Z,101261.94
2022-10-14T00:04:48.652Z,101267.34
2022-10-14T00:07:15.238Z,101271.91
2022-10-14T00:09:42.824Z,101277.13
2022-10-14T00:12:09.527Z,101276.47
2022-10-14T00:14:36.111Z,101268.19
2022-10-14T00:17:02.671Z,101269.22
2022-10-14T00:19:29.254Z,101267.34
2022-10-14T00:21:55.849Z,101261.09
2022-10-14T00:24:22.490Z,101265.00
2022-10-14T00:26:49.131Z,101266.69
2022-10-14T00:29:18.905Z,101268.00
2022-10-14T00:31:46.290Z,101258.19
2022-10-14T00:34:15.813Z,101256.16
2022-10-14T00:36:43.320Z,101257.81
2022-10-14T00:39:10.669Z,101257.66
2022-10-14T00:41:38.240Z,101253.09
2022-10-14T00:44:27.495Z,101255.44
2022-10-14T00:46:55.081Z,101250.84
2022-10-14T00:49:41.018Z,101245.63
2022-10-14T00:52:16.547Z,101253.38
2022-10-14T00:54:54.309Z,101256.09
2022-10-14T00:57:22.887Z,101254.03
2022-10-14T00:59:49.830Z,101255.06
2022-10-14T01:02:16.397Z,101245.06
2022-10-14T01:04:44.611Z,101248.44
2022-10-14T01:07:52.244Z,101254.03
2022-10-14T01:10:24.882Z,101244.88
2022-10-14T01:13:04.536Z,101246.75
2022-10-14T01:15:37.303Z,101246.94
2022-10-14T01:18:15.648Z,101241.16
2022-10-14T01:20:42.181Z,101240.50
2022-10-14T01:23:33.351Z,101238.44
2022-10-14T01:26:28.765Z,101236.94
2022-10-14T01:29:32.806Z,101239.00
2022-10-14T01:32:09.405Z,101241.53
2022-10-14T01:34:41.492Z,101243.59
2022-10-14T01:37:16.684Z,101237.16
2022-10-14T01:39:48.040Z,101242.56
2022-10-14T01:42:20.087Z,101232.75
2022-10-14T01:44:53.413Z,101238.16
2022-10-14T01:47:21.577Z,101231.06
2022-10-14T01:49:57.721Z,101225.28
2022-10-14T01:52:30.016Z,101231.72
2022-10-14T01:55:01.346Z,101231.25
2022-10-14T01:57:31.139Z,101236.31
2022-10-14T01:59:58.521Z,101226.69
2022-10-14T02:02:25.852Z,101231.63
2022-10-14T02:04:52.435Z,101225.19
2022-10-14T02:07:27.991Z,101230.44
2022-10-14T02:10:09.830Z,101222.97
2022-10-14T02:12:45.416Z,101222.97
2022-10-14T02:15:17.964Z,101217.72
2022-10-14T02:18:03.228Z,101227.53
2022-10-14T02:20:33.362Z,101222.13
2022-10-14T02:23:11.033Z,101228.38
2022-10-14T02:25:41.332Z,101216.25
2022-10-14T02:28:10.991Z,101219.59
2022-10-14T02:30:45.774Z,101215.88
2022-10-14T02:33:13.421Z,101211.47
2022-10-14T02:35:41.874Z,101211.28
2022-10-14T02:38:09.850Z,101214.84
2022-10-14T02:40:42.267Z,101212.50
2022-10-14T02:43:10.951Z,101216.91
2022-10-14T02:45:39.426Z,101215.03
2022-10-14T02:48:06.574Z,101214.84
2022-10-14T02:50:33.407Z,101214.00
2022-10-14T02:52:59.977Z,101215.88
2022-10-14T02:55:26.889Z,101203.38
2022-10-14T02:57:53.565Z,101208.78
2022-10-14T03:00:21.071Z,101208.59
2022-10-14T03:02:47.792Z,101210.47
2022-10-14T03:05:14.506Z,101207.56
2022-10-14T03:07:41.103Z,101208.41
2022-10-14T03:10:07.961Z,101214.84
2022-10-14T03:12:34.539Z,101212.13
2022-10-14T03:15:01.126Z,101204.84
2022-10-14T03:17:27.727Z,101201.31
2022-10-14T03:19:54.318Z,101203.19
2022-10-14T03:22:21.072Z,101203.19
2022-10-14T03:24:47.815Z,101206.06
2022-10-14T03:27:14.373Z,101198.78
2022-10-14T03:29:41.047Z,101204.38
2022-10-14T03:32:07.649Z,101207.38
2022-10-14T03:34:34.214Z,101208.59
2022-10-14T03:37:01.090Z,101195.91
2022-10-14T03:39:27.950Z,101206.34
2022-10-14T03:41:54.599Z,101208.69
2022-10-14T03:44:21.157Z,101203.25
2022-10-14T03:46:47.779Z,101198.03
2022-10-14T03:49:14.320Z,101201.59
2022-10-14T03:51:40.890Z,101204.28
2022-10-14T03:54:07.544Z,101204.47
2022-10-14T03:56:34.203Z,101198.03
2022-10-14T03:59:00.788Z,101196.56
2022-10-14T04:01:27.490Z,101204.66
2022-10-14T04:03:54.108Z,101196.38
2022-10-14T04:06:20.657Z,101192.44
2022-10-14T04:08:47.249Z,101187.41
2022-10-14T04:11:13.810Z,101192.16
2022-10-14T04:13:40.455Z,101186.75
2022-10-14T04:16:09.671Z,101185.91
2022-10-14T04:18:36.657Z,101182.56
2022-10-14T04:21:06.975Z,101181.91
2022-10-14T04:23:33.782Z,101172.94
2022-10-14T04:26:05.184Z,101171.25
2022-10-14T04:28:32.612Z,101174.97
2022-10-14T04:30:59.236Z,101173.09
2022-10-14T04:33:26.416Z,101169.94
2022-10-14T04:36:00.746Z,101166.84
2022-10-14T04:38:27.808Z,101162.84
2022-10-14T04:40:54.864Z,101165.19
2022-10-14T04:43:21.857Z,101166.22
2022-10-14T04:45:48.618Z,101168.91
2022-10-14T04:48:16.140Z,101162.84
2022-10-14T04:50:42.858Z,101169.94
2022-10-14T04:53:13.544Z,101163.88
2022-10-14T04:55:40.735Z,101154.91
2022-10-14T04:58:07.553Z,101155.09
2022-10-14T05:00:34.105Z,101159.50
2022-10-14T05:03:00.676Z,101165.94
2022-10-14T05:05:27.345Z,101160.50
2022-10-14T05:07:53.998Z,101160.34
2022-10-14T05:10:20.619Z,101154.91
2022-10-14T05:12:47.801Z,101156.59
2022-10-14T05:15:15.405Z,101152.03
2022-10-14T05:17:44.591Z,101166.22
2022-10-14T05:20:12.601Z,101162.84
2022-10-14T05:22:39.399Z,101156.13
2022-10-14T05:25:06.690Z,101148.66
2022-10-14T05:27:33.263Z,101152.59
2022-10-14T05:29:59.810Z,101158.84
2022-10-14T05:32:26.374Z,101159.69
2022-10-14T05:34:52.958Z,101159.69
2022-10-14T05:37:19.526Z,101165.28
2022-10-14T05:39:46.578Z,101157.50
2022-10-14T05:42:13.141Z,101163.75
2022-10-14T05:44:39.721Z,101162.72
2022-10-14T05:47:06.307Z,101159.38
2022-10-14T05:49:32.865Z,101157.31
2022-10-14T05:51:59.432Z,101160.22
2022-10-14T05:54:25.999Z,101159.19
2022-10-14T05:56:52.612Z,101157.31
2022-10-14T05:59:19.637Z,101156.97
2022-10-14T06:01:46.196Z,101160.91
2022-10-14T06:04:20.672Z,101156.47
2022-10-14T06:06:47.620Z,101157.31
2022-10-14T06:09:14.699Z,101165.28
2022-10-14T06:11:41.264Z,101165.09
2022-10-14T06:14:08.328Z,101158.47
2022-10-14T06:16:34.904Z,101162.84
2022-10-14T06:19:01.589Z,101162.97
2022-10-14T06:21:28.519Z,101166.78
2022-10-14T06:23:55.114Z,101161.84
2022-10-14T06:26:21.720Z,101158.50
2022-10-14T06:28:48.384Z,101160.47
2022-10-14T06:31:14.995Z,101156.19
2022-10-14T06:33:43.655Z,101152.34
2022-10-14T06:36:10.697Z,101154.19
2022-10-14T06:38:37.343Z,101154.78
2022-10-14T06:41:04.117Z,101154.41
2022-10-14T06:43:30.695Z,101156.44
2022-10-14T06:45:58.648Z,101165.41
2022-10-14T06:48:25.211Z,101152.06
2022-10-14T06:50:52.149Z,101159.16
2022-10-14T06:53:19.219Z,101153.38
2022-10-14T06:55:46.112Z,101156.44
2022-10-14T06:58:12.660Z,101160.84
2022-10-14T07:00:40.069Z,101162.31
2022-10-14T07:03:08.736Z,101158.78
2022-10-14T07:05:36.056Z,101157.09
2022-10-14T07:08:02.620Z,101161.88
2022-10-14T07:10:29.211Z,101164.38
2022-10-14T07:12:56.320Z,101167.28
2022-10-14T07:15:23.146Z,101155.63
2022-10-14T07:17:49.759Z,101160.84
2022-10-14T07:20:16.746Z,101160.84
2022-10-14T07:22:43.355Z,101158.31
2022-10-14T07:25:10.482Z,101164.56
2022-10-14T07:27:37.154Z,101164.75
2022-10-14T07:30:05.633Z,101169.16
2022-10-14T07:32:34.516Z,101166.63
2022-10-14T07:35:01.083Z,101165.75
2022-10-14T07:37:27.620Z,101172.41
2022-10-14T07:39:54.202Z,101174.06
2022-10-14T07:44:54.313Z,101184.06
2022-10-14T07:47:21.270Z,101182.00
2022-10-14T07:49:48.049Z,101183.53
2022-10-14T07:52:15.702Z,101172.41
2022-10-14T07:54:42.358Z,101180.81
2022-10-14T07:57:08.938Z,101174.25
2022-10-14T07:59:35.513Z,101175.09
2022-10-14T08:02:02.083Z,101177.63
2022-10-14T08:04:29.122Z,101179.97
2022-10-14T08:06:55.789Z,101168.31
2022-10-14T08:09:22.503Z,101177.06
2022-10-14T08:11:49.434Z,101181.47
2022-10-14T08:14:16.537Z,101187.25
2022-10-14T08:16:43.120Z,101183.97
2022-10-14T08:19:14.485Z,101183.41
2022-10-14T08:21:43.234Z,101183.41
2022-10-14T08:24:10.496Z,101171.00
2022-10-14T08:26:39.509Z,101176.25
2022-10-14T08:29:09.808Z,101176.25
2022-10-14T08:31:36.743Z,101174.56
2022-10-14T08:34:03.436Z,101177.28
2022-10-14T08:36:30.116Z,101174.56
2022-10-14T08:38:56.836Z,101172.53
2022-10-14T08:41:38.671Z,101168.13
2022-10-14T08:44:11.765Z,101178.50
2022-10-14T08:46:52.188Z,101174.94
2022-10-14T08:49:35.533Z,101165.97
2022-10-14T08:52:08.798Z,101163.91
2022-10-14T08:54:43.563Z,101164.56
2022-10-14T08:57:18.802Z,101162.69
2022-10-14T08:59:45.571Z,101158.25
2022-10-14T09:02:38.693Z,101157.50
2022-10-14T09:05:06.339Z,101160.56
2022-10-14T09:07:35.598Z,101154.59
2022-10-14T09:10:14.722Z,101148.03
2022-10-14T09:12:42.907Z,101145.31
2022-10-14T09:15:35.406Z,101147.81
2022-10-14T09:18:14.403Z,101146.44
2022-10-14T09:20:42.154Z,101153.97
2022-10-14T09:23:20.481Z,101152.03
2022-10-14T09:25:59.234Z,101155.00
2022-10-14T09:28:41.264Z,101153.47
2022-10-14T09:31:12.275Z,101160.88
2022-10-14T09:33:42.401Z,101150.56
2022-10-14T09:36:22.118Z,101152.41
2022-10-14T09:38:53.239Z,101149.88
2022-10-14T09:41:30.771Z,101154.94
2022-10-14T09:44:18.605Z,101148.84
2022-10-14T09:46:52.389Z,101139.53
2022-10-14T09:49:33.963Z,101144.13
2022-10-14T09:52:02.698Z,101145.41
2022-10-14T09:54:31.717Z,101146.16
2022-10-14T09:57:02.416Z,101144.97
2022-10-14T09:59:29.601Z,101143.28
2022-10-14T10:02:03.976Z,101137.44
2022-10-14T10:04:45.135Z,101140.50
2022-10-14T10:07:38.025Z,101133.63
2022-10-14T10:10:18.594Z,101129.03
2022-10-14T10:12:47.187Z,101123.22
2022-10-14T10:15:21.386Z,101126.34
2022-10-14T10:17:49.674Z,101121.19
2022-10-14T10:20:33.395Z,101126.91
2022-10-14T10:23:25.184Z,101118.69
2022-10-14T10:25:52.497Z,101118.06
2022-10-14T10:28:32.903Z,101116.66
2022-10-14T10:31:03.616Z,101111.75
2022-10-14T10:33:59.914Z,101103.47
2022-10-14T10:36:35.629Z,101095.06
2022-10-14T10:39:12.632Z,101091.78
2022-10-14T10:41:46.791Z,101090.88
2022-10-14T10:44:47.458Z,101088.75
2022-10-14T10:47:27.693Z,101082.69
2022-10-14T10:50:20.402Z,101081.72
2022-10-14T10:53:01.569Z,101082.22
2022-10-14T10:56:00.096Z,101074.00
2022-10-14T10:58:41.817Z,101083.31
2022-10-14T11:01:21.356Z,101077.13
2022-10-14T11:04:02.348Z,101085.66
2022-10-14T11:07:18.758Z,101075.13
2022-10-14T11:10:28.526Z,101082.41
2022-10-14T11:13:05.503Z,101079.38
2022-10-14T11:15:42.036Z,101076.53
2022-10-14T11:18:30.798Z,101073.50
2022-10-14T11:21:29.437Z,101077.34
2022-10-14T11:24:25.146Z,101081.81
2022-10-14T11:27:02.614Z,101079.41
2022-10-14T11:29:46.841Z,101078.41
2022-10-14T11:32:22.156Z,101079.53
2022-10-14T11:35:17.225Z,101069.41
2022-10-14T11:37:56.080Z,101072.50
2022-10-14T11:40:49.996Z,101071.22
2022-10-14T11:43:29.478Z,101063.28
2022-10-14T11:46:09.129Z,101060.66
2022-10-14T11:48:45.075Z,101062.31
2022-10-14T11:51:30.735Z,101056.66
2022-10-14T11:54:16.151Z,101060.66
2022-10-14T11:56:51.008Z,101049.91
2022-10-14T11:59:45.357Z,101052.59
2022-10-14T12:02:39.428Z,101045.03
2022-10-14T12:05:08.739Z,101046.06
2022-10-14T12:07:45.484Z,101042.00
2022-10-14T12:10:26.826Z,101039.13
2022-10-14T12:12:54.816Z,101038.91
2022-10-14T12:15:24.326Z,101034.72
2022-10-14T12:17:59.817Z,101024.53
2022-10-14T12:20:47.628Z,101028.44
2022-10-14T12:23:44.962Z,101029.69
2022-10-14T12:26:34.698Z,101029.97
2022-10-14T12:29:03.877Z,101028.84
2022-10-14T12:31:37.418Z,101026.69
2022-10-14T12:34:16.087Z,101029.03
2022-10-14T12:36:45.414Z,101023.22
2022-10-14T12:39:17.870Z,101016.97
2022-10-14T12:41:59.469Z,101021.84
2022-10-14T12:44:49.689Z,101014.88
2022-10-14T12:47:18.345Z,101015.97
2022-10-14T12:49:50.019Z,101022.63
2022-10-14T12:52:22.197Z,101019.28
2022-10-14T12:57:29.371Z,101007.41
2022-10-14T13:00:00.821Z,101011.97
2022-10-14T13:02:35.152Z,101004.50
2022-10-14T13:05:22.154Z,101005.34
2022-10-14T13:08:14.652Z,100997.09
2022-10-14T13:10:46.874Z,100999.81
2022-10-14T13:13:48.015Z,100989.38
2022-10-14T13:16:23.407Z,100998.50
2022-10-14T13:18:54.289Z,100992.19
2022-10-14T13:21:31.197Z,100997.41
2022-10-14T13:24:05.833Z,100995.16
2022-10-14T13:26:39.342Z,100989.38
2022-10-14T13:29:20.763Z,100991.41
2022-10-14T13:31:53.386Z,100979.81
2022-10-14T13:34:41.626Z,100973.47
2022-10-14T13:37:38.049Z,100972.53
2022-10-14T13:40:30.273Z,100970.22
2022-10-14T13:42:59.347Z,100963.59
2022-10-14T13:45:37.041Z,100959.16
2022-10-14T13:48:09.970Z,100952.78
2022-10-14T13:50:38.247Z,100958.13
2022-10-14T13:53:18.058Z,100959.63
2022-10-14T13:55:53.119Z,100957.19
2022-10-14T13:58:22.970Z,100968.00
2022-10-14T14:01:02.639Z,100950.78
2022-10-14T14:03:34.195Z,100954.41
2022-10-14T14:06:02.243Z,100954.94
2022-10-14T14:08:40.308Z,100957.53
2022-10-14T14:11:18.005Z,100951.00
2022-10-14T14:14:08.051Z,100950.22
2022-10-14T14:16:56.454Z,100949.81
2022-10-14T14:19:27.905Z,100946.31
2022-10-14T14:22:15.996Z,100946.75
2022-10-14T14:24:42.981Z,100942.56
2022-10-14T14:27:13.866Z,100945.91
2022-10-14T14:29:43.069Z,100949.16
2022-10-14T14:32:18.707Z,100948.59
2022-10-14T14:34:47.839Z,100951.34
2022-10-14T14:37:53.284Z,100955.09
2022-10-14T14:40:28.392Z,100961.03
2022-10-14T14:43:00.893Z,100948.16
2022-10-14T14:45:35.092Z,100950.09
2022-10-14T14:48:06.748Z,100943.78
2022-10-14T14:50:43.144Z,100941.63
2022-10-14T14:53:17.591Z,100934.03
2022-10-14T14:55:53.357Z,100941.13
2022-10-14T14:58:31.850Z,100935.38
2022-10-14T15:00:59.165Z,100925.56
2022-10-14T15:03:28.522Z,100933.84
2022-10-14T15:05:59.415Z,100934.19
2022-10-14T15:08:29.577Z,100930.00
2022-10-14T15:10:58.044Z,100928.25
2022-10-14T15:13:38.555Z,100926.34
2022-10-14T15:16:06.011Z,100931.97
2022-10-14T15:18:32.698Z,100926.22
2022-10-14T15:21:19.189Z,100924.47
2022-10-14T15:24:00.499Z,100923.16
2022-10-14T15:26:34.735Z,100922.41
2022-10-14T15:29:15.606Z,100915.72
2022-10-14T15:31:45.698Z,100923.97
2022-10-14T15:34:17.443Z,100913.38
2022-10-14T15:36:44.235Z,100911.25
2022-10-14T15:39:13.915Z,100909.97
2022-10-14T15:41:41.987Z,100904.75
2022-10-14T15:44:08.575Z,100910.34
2022-10-14T15:46:55.580Z,100904.50
2022-10-14T15:49:51.272Z,100898.59
2022-10-14T15:52:19.469Z,100905.41
2022-10-14T15:54:48.981Z,100904.84
2022-10-14T15:57:16.898Z,100899.44
2022-10-14T15:59:43.655Z,100893.25
2022-10-14T16:02:25.876Z,100889.78
2022-10-14T16:05:18.955Z,100888.47
2022-10-14T16:07:40.941Z,100893.72
2022-10-14T16:10:09.161Z,100888.31
2022-10-14T16:12:35.846Z,100892.69
2022-10-14T16:17:31.920Z,100884.81
2022-10-14T16:19:58.559Z,100890.66
2022-10-14T16:22:25.135Z,100891.06
2022-10-14T16:24:51.730Z,100888.09
2022-10-14T16:27:19.013Z,100874.81
2022-10-14T16:29:45.891Z,100883.97
2022-10-14T16:32:13.389Z,100882.22
2022-10-14T16:34:39.966Z,100880.75
2022-10-14T16:37:07.225Z,100885.78
2022-10-14T16:39:33.793Z,100885.13
2022-10-14T16:42:00.548Z,100889.28
2022-10-14T16:44:27.460Z,100885.53
2022-10-14T16:47:14.576Z,100891.16
2022-10-14T16:49:42.723Z,100886.88
2022-10-14T16:52:09.512Z,100885.03
2022-10-14T16:54:36.613Z,100885.84
2022-10-14T16:57:04.206Z,100887.28
2022-10-14T16:59:31.289Z,100881.22
2022-10-14T17:01:58.739Z,100890.84
2022-10-14T17:04:25.549Z,100885.22
2022-10-14T17:06:52.526Z,100883.53
2022-10-14T17:09:19.387Z,100880.63
2022-10-14T17:11:46.901Z,100882.72
2022-10-14T17:14:16.612Z,100882.06
2022-10-14T17:16:43.193Z,100875.63
2022-10-14T17:19:11.242Z,100874.97
2022-10-14T17:21:38.981Z,100873.94
2022-10-14T17:24:05.703Z,100868.53
2022-10-14T17:26:33.659Z,100870.19
2022-10-14T17:29:01.226Z,100874.19
2022-10-14T17:31:28.931Z,100877.94
2022-10-14T17:33:55.597Z,100879.59
2022-10-14T17:36:28.212Z,100870.00
2022-10-14T17:38:55.804Z,100873.34
2022-10-14T17:41:23.990Z,100874.63
2022-10-14T17:43:51.737Z,100872.94
2022-10-14T17:46:21.258Z,100870.84
2022-10-14T17:48:52.990Z,100862.72
2022-10-14T17:51:25.243Z,100869.81
2022-10-14T17:53:57.166Z,100866.06
2022-10-14T17:56:24.495Z,100863.34
2022-10-14T17:58:57.004Z,100866.69
2022-10-14T18:01:37.061Z,100860.66
2022-10-14T18:04:04.220Z,100862.31
2022-10-14T18:06:33.515Z,100864.19
2022-10-14T18:09:05.964Z,100867.16
2022-10-14T18:11:49.904Z,100866.31
2022-10-14T18:14:21.690Z,100860.31
2022-10-14T18:16:48.606Z,100875.72
2022-10-14T18:19:16.657Z,100868.00
2022-10-14T18:21:44.402Z,100861.91
2022-10-14T18:24:11.922Z,100866.97
2022-10-14T18:26:40.604Z,100864.00
2022-10-14T18:29:07.960Z,100857.94
2022-10-14T18:31:34.905Z,100845.88
2022-10-14T18:34:01.909Z,100842.97
2022-10-14T18:36:30.274Z,100842.97
2022-10-14T18:39:02.220Z,100840.66
2022-10-14T18:41:30.097Z,100834.66
2022-10-14T18:43:59.747Z,100832.97
2022-10-14T18:46:31.896Z,100831.31
2022-10-14T18:49:00.709Z,100826.72
2022-10-14T18:51:34.745Z,100830.47
2022-10-14T18:54:07.202Z,100830.88
2022-10-14T18:56:38.741Z,100830.47
2022-10-14T18:59:11.572Z,100825.03
2022-10-14T19:01:39.357Z,100820.47
2022-10-14T19:04:08.457Z,100820.66
2022-10-14T19:06:35.712Z,100815.84
2022-10-14T19:09:02.862Z,100809.41
2022-10-14T19:11:32.822Z,100812.31
2022-10-14T19:14:00.828Z,100808.56
2022-10-14T19:16:30.619Z,100803.34
2022-10-14T19:18:59.744Z,100807.94
2022-10-14T19:21:30.452Z,100810.00
2022-10-14T19:23:58.541Z,100812.31
2022-10-14T19:26:27.603Z,100808.75
2022-10-14T19:28:54.445Z,100799.16
2022-10-14T19:31:24.882Z,100806.44
2022-10-14T19:33:52.987Z,100797.28
2022-10-14T19:36:21.089Z,100800.84
2022-10-14T19:38:52.161Z,100798.69
2022-10-14T19:41:19.100Z,100801.22
2022-10-14T19:43:45.673Z,100789.34
2022-10-14T19:46:13.914Z,100788.72
2022-10-14T19:48:40.977Z,100782.47
2022-10-14T19:51:11.752Z,100785.38
2022-10-14T19:53:40.139Z,100776.56
2022-10-14T19:56:09.557Z,100778.72
2022-10-14T19:58:38.643Z,100775.81
2022-10-14T20:01:16.318Z,100777.88
2022-10-14T20:03:43.348Z,100778.50
2022-10-14T20:06:12.358Z,100765.19
2022-10-14T20:08:38.948Z,100757.69
2022-10-14T20:11:08.055Z,100753.16
2022-10-14T20:13:35.321Z,100745.03
2022-10-14T20:16:02.472Z,100746.22
2022-10-14T20:18:29.984Z,100749.56
2022-10-14T20:20:57.327Z,100748.72
2022-10-14T20:23:25.323Z,100756.22
2022-10-14T20:25:52.241Z,100752.47
2022-10-14T20:28:19.744Z,100752.69
2022-10-14T20:30:47.942Z,100744.75
2022-10-14T20:33:14.972Z,100744.56
2022-10-14T20:35:41.520Z,100745.19
2022-10-14T20:38:08.215Z,100746.03
2022-10-14T20:40:35.731Z,100748.28
2022-10-14T20:43:03.276Z,100739.34
2022-10-14T20:45:29.819Z,100741.22
2022-10-14T20:47:56.456Z,100739.50
2022-10-14T20:50:23.145Z,100742.22
2022-10-14T20:52:49.777Z,100738.69
2022-10-14T20:55:16.400Z,100742.22
2022-10-14T20:57:42.969Z,100743.06
2022-10-14T21:00:10.133Z,100736.63
2022-10-14T21:02:36.805Z,100742.06
2022-10-14T21:05:03.754Z,100735.97
2022-10-14T21:07:30.314Z,100732.22
2022-10-14T21:09:56.873Z,100738.31
2022-10-14T21:12:23.572Z,100725.97
2022-10-14T21:14:50.303Z,100725.81
2022-10-14T21:17:16.907Z,100708.91
2022-10-14T21:19:43.457Z,100705.16
2022-10-14T21:22:10.017Z,100705.34
2022-10-14T21:24:40.674Z,100689.09
2022-10-14T21:27:07.658Z,100689.94
2022-10-14T21:29:34.305Z,100692.84
2022-10-14T21:32:02.562Z,100688.28
2022-10-14T21:34:30.116Z,100695.34
2022-10-14T21:36:57.254Z,100691.63
2022-10-14T21:39:26.822Z,100685.00
2022-10-14T21:41:53.485Z,100681.66
2022-10-14T21:44:21.065Z,100680.16
2022-10-14T21:46:48.351Z,100671.00
2022-10-14T21:49:15.731Z,100671.19
2022-10-14T21:51:42.417Z,100679.78
2022-10-14T21:54:12.198Z,100672.75
2022-10-14T21:56:39.337Z,100672.75
2022-10-14T21:59:06.867Z,100669.22
2022-10-14T22:01:33.806Z,100658.38
2022-10-14T22:04:05.773Z,100652.56
2022-10-14T22:06:34.764Z,100651.50
2022-10-14T22:09:03.916Z,100645.06
2022-10-14T22:11:33.963Z,100648.81
2022-10-14T22:14:02.905Z,100652.16
2022-10-14T22:16:30.000Z,100645.06
2022-10-14T22:18:59.161Z,100646.72
2022-10-14T22:21:27.122Z,100640.47
2022-10-14T22:23:53.923Z,100637.56
2022-10-14T22:26:23.276Z,100631.75
2022-10-14T22:28:50.345Z,100622.38
2022-10-14T22:31:19.771Z,100623.00
2022-10-14T22:33:48.863Z,100625.69
2022-10-14T22:36:23.846Z,100621.75
2022-10-14T22:38:52.208Z,100610.28
2022-10-14T22:41:19.438Z,100611.13
2022-10-14T22:43:51.069Z,100596.94
2022-10-14T22:46:20.433Z,100596.75
2022-10-14T22:48:56.101Z,100579.66
2022-10-14T22:53:54.374Z,100592.16
2022-10-14T22:56:23.198Z,100601.78
2022-10-14T22:58:57.769Z,100596.16
2022-10-14T23:01:27.816Z,100566.75
2022-10-14T23:03:55.978Z,100566.97
2022-10-14T23:06:22.803Z,100576.75
2022-10-14T23:08:49.384Z,100580.28
2022-10-14T23:11:21.101Z,100584.66
2022-10-14T23:13:48.058Z,100586.75
2022-10-14T23:16:17.361Z,100581.34
2022-10-14T23:18:45.208Z,100581.13
2022-10-14T23:21:23.808Z,100575.53
2022-10-14T23:23:51.566Z,100577.41
2022-10-14T23:26:21.418Z,100576.53
2022-10-14T23:28:52.694Z,100582.63
2022-10-14T23:31:22.888Z,100576.38
2022-10-14T23:33:51.474Z,100572.00
2022-10-14T23:36:19.336Z,100568.41
2022-10-14T23:38:46.543Z,100568.41
2022-10-14T23:41:13.670Z,100567.59
2022-10-14T23:43:40.954Z,100569.47
2022-10-14T23:46:08.398Z,100577.59
2022-10-14T23:48:35.801Z,100574.03
2022-10-14T23:51:02.493Z,100570.50
2022-10-14T23:53:29.064Z,100569.25
2022-10-14T23:55:56.491Z,100572.16
2022-10-14T23:58:24.428Z,100570.50
